Time;durP1;ratioP1;P1;durP2;ratioP2;P2;SDS_P1;SDS_P2;PMS_P1;PMS_P2;Temp;Humidity;BMP_temperature;BMP_pressure;BME280_temperature;BME280_humidity;BME280_pressure;Samples;Min_cycle;Max_cycle;Signal;HPM_P1;HPM_P2
2023/02/16 20:35:02;;;;;;;6.50;5.33;;;;;;;8.54;49.82;96518.28;5080609;27;20544;-85
2023/02/16 20:37:29;;;;;;;7.13;5.17;;;;;;;8.72;49.52;96511.47;5082071;28;20341;-85
2023/02/16 20:39:56;;;;;;;7.23;5.93;;;;;;;8.96;49.01;96518.66;5072170;28;20259;-85
2023/02/16 20:42:22;;;;;;;6.07;4.87;;;;;;;9.20;48.55;96505.28;5088554;28;20231;-83
2023/02/16 20:44:48;;;;;;;10.63;5.40;;;;;;;9.42;48.88;96516.91;5088843;28;20227;-83
2023/02/16 20:47:15;;;;;;;7.73;5.30;;;;;;;9.62;48.19;96505.50;5080314;28;20201;-83
2023/02/16 20:49:41;;;;;;;6.77;5.23;;;;;;;9.79;48.08;96511.59;5068024;28;20236;-83
2023/02/16 20:52:09;;;;;;;7.23;5.63;;;;;;;9.91;47.68;96498.34;5066536;28;20567;-83
2023/02/16 20:54:36;;;;;;;7.23;5.10;;;;;;;10.04;47.61;96503.09;5065558;28;20610;-83
2023/02/16 20:57:03;;;;;;;9.60;4.70;;;;;;;10.14;46.95;96497.84;5066349;28;20192;-82
2023/02/16 20:59:29;;;;;;;6.97;5.00;;;;;;;10.24;47.51;96504.53;5065848;28;20224;-83
2023/02/16 21:01:56;;;;;;;6.93;5.27;;;;;;;10.30;47.22;96497.97;5060908;28;20206;-83
2023/02/16 21:04:22;;;;;;;8.63;5.67;;;;;;;10.35;46.43;96504.31;5046004;28;20205;-84
2023/02/16 21:06:49;;;;;;;8.40;5.17;;;;;;;10.41;46.67;96508.00;5060592;28;20586;-84
2023/02/16 21:09:17;;;;;;;7.97;5.13;;;;;;;10.46;47.00;96498.06;5064563;28;20217;-83
2023/02/16 21:11:43;;;;;;;6.80;5.03;;;;;;;10.52;46.35;96499.22;5050825;28;20186;-83
2023/02/16 21:14:11;;;;;;;5.83;5.10;;;;;;;10.55;46.63;96492.00;5045045;28;20221;-83
2023/02/16 21:16:39;;;;;;;6.40;5.10;;;;;;;10.56;46.09;96496.22;5056916;28;20217;-83
2023/02/16 21:19:06;;;;;;;6.60;4.63;;;;;;;10.60;46.28;96499.25;5053975;28;20213;-83
2023/02/16 21:21:32;;;;;;;7.80;4.90;;;;;;;10.60;46.71;96506.97;5045871;28;20654;-83
2023/02/16 21:23:59;;;;;;;6.77;4.83;;;;;;;10.59;46.71;96501.03;5064640;28;20201;-83
2023/02/16 21:26:26;;;;;;;6.53;5.10;;;;;;;10.65;46.62;96507.34;5064140;28;20229;-83
2023/02/16 21:28:55;;;;;;;8.50;5.40;;;;;;;10.66;46.81;96501.22;5050767;28;20306;-83
2023/02/16 21:31:24;;;;;;;7.63;5.30;;;;;;;10.70;46.63;96505.91;5044558;28;20738;-83
2023/02/16 21:33:51;;;;;;;6.80;4.77;;;;;;;10.69;46.44;96494.00;5045424;28;20285;-83
2023/02/16 21:36:21;;;;;;;6.00;4.33;;;;;;;10.72;46.33;96491.13;5052451;28;20262;-83
2023/02/16 21:38:47;;;;;;;8.93;4.87;;;;;;;10.77;46.37;96497.59;5030268;28;20847;-84
2023/02/16 21:41:25;;;;;;;7.07;4.90;;;;;;;10.72;45.96;96485.97;5055964;28;20362;-83
2023/02/16 21:43:59;;;;;;;7.17;4.67;;;;;;;10.75;46.46;96478.91;5045017;28;20193;-83
2023/02/16 21:46:27;;;;;;;7.37;4.83;;;;;;;10.75;46.49;96479.72;5030876;28;20228;-83
2023/02/16 21:48:53;;;;;;;6.87;5.17;;;;;;;10.76;46.44;96483.09;5033234;28;20226;-84
2023/02/16 21:51:22;;;;;;;8.43;5.23;;;;;;;10.76;46.02;96475.38;5049783;28;20275;-83
2023/02/16 21:53:53;;;;;;;11.80;5.40;;;;;;;10.77;46.15;96482.13;5047619;28;20221;-84
2023/02/16 21:56:27;;;;;;;6.30;4.67;;;;;;;10.69;45.99;96488.03;5050629;28;20225;-83
2023/02/16 21:58:53;;;;;;;6.60;4.60;;;;;;;10.68;46.05;96482.09;5037693;28;20725;-83
2023/02/16 22:01:23;;;;;;;5.40;4.40;;;;;;;10.67;45.86;96479.66;5045793;28;20221;-84
2023/02/16 22:03:57;;;;;;;8.80;4.77;;;;;;;10.66;45.78;96478.84;5036868;28;20244;-83
2023/02/16 22:06:24;;;;;;;5.63;4.50;;;;;;;10.64;46.07;96475.63;5030688;28;20261;-83
2023/02/16 22:08:52;;;;;;;6.67;4.47;;;;;;;10.63;46.03;96483.50;5031797;28;20279;-83
2023/02/16 22:11:19;;;;;;;7.07;4.40;;;;;;;10.67;45.95;96480.47;5030160;28;20718;-83
2023/02/16 22:13:46;;;;;;;4.33;3.93;;;;;;;10.63;45.69;96478.34;5036670;28;20233;-83
2023/02/16 22:16:14;;;;;;;6.17;4.40;;;;;;;10.64;46.10;96478.19;5030538;28;20229;-83
2023/02/16 22:18:43;;;;;;;7.53;4.03;;;;;;;10.58;46.07;96473.66;5030665;28;20221;-83
2023/02/16 22:21:11;;;;;;;6.10;3.90;;;;;;;10.59;46.14;96477.03;5030536;28;20782;-83
2023/02/16 22:23:39;;;;;;;4.47;3.67;;;;;;;10.58;45.78;96473.66;5051935;28;20225;-83
2023/02/16 22:26:09;;;;;;;5.00;3.93;;;;;;;10.58;45.78;96468.50;5030668;28;20225;-83
2023/02/16 22:28:38;;;;;;;6.23;4.27;;;;;;;10.59;46.10;96475.28;5036892;28;20253;-84
2023/02/16 22:31:08;;;;;;;4.83;4.17;;;;;;;10.58;45.78;96463.34;5030448;28;20253;-83
2023/02/16 22:33:35;;;;;;;6.10;4.10;;;;;;;10.62;46.21;96469.81;5054458;28;20239;-84
2023/02/16 22:36:08;;;;;;;4.20;3.63;;;;;;;10.65;46.01;96471.28;5050408;28;20225;-83
2023/02/16 22:38:35;;;;;;;6.23;4.10;;;;;;;10.68;45.96;96474.34;5032716;28;20282;-83
2023/02/16 22:41:05;;;;;;;5.57;4.17;;;;;;;10.72;45.56;96473.09;5041207;28;20225;-83
2023/02/16 22:43:32;;;;;;;5.60;4.20;;;;;;;10.70;45.93;96474.22;5032383;28;20228;-84
2023/02/16 22:46:01;;;;;;;5.87;4.00;;;;;;;10.69;45.59;96475.97;5041059;28;20217;-83
2023/02/16 22:48:30;;;;;;;5.33;3.80;;;;;;;10.69;45.54;96470.81;5049705;28;20232;-83
2023/02/16 22:50:58;;;;;;;4.70;4.20;;;;;;;10.68;45.40;96473.56;5049354;28;20225;-83
2023/02/16 22:53:26;;;;;;;8.33;4.40;;;;;;;10.67;45.21;96466.78;5048465;28;20212;-83
2023/02/16 22:55:53;;;;;;;6.33;4.30;;;;;;;10.66;45.30;96476.28;5049657;28;20221;-84
2023/02/16 22:58:20;;;;;;;4.63;3.97;;;;;;;10.65;45.04;96463.56;5049100;28;20202;-84
2023/02/16 23:00:47;;;;;;;4.93;4.27;;;;;;;10.69;45.39;96467.44;5049198;28;20237;-83
2023/02/16 23:03:13;;;;;;;4.10;3.60;;;;;;;10.68;45.04;96471.78;5049186;28;20201;-83
2023/02/16 23:05:40;;;;;;;6.20;4.33;;;;;;;10.73;45.25;96472.13;5049436;28;20225;-83
2023/02/16 23:08:08;;;;;;;7.10;4.40;;;;;;;10.77;45.50;96469.25;5036748;28;20194;-84
2023/02/16 23:10:36;;;;;;;9.60;4.30;;;;;;;10.76;44.92;96470.22;5030061;28;20730;-83
2023/02/16 23:13:03;;;;;;;4.83;4.03;;;;;;;10.75;45.06;96466.81;5043494;28;20281;-83
2023/02/16 23:15:30;;;;;;;7.03;4.80;;;;;;;10.73;45.15;96468.75;5049636;28;20234;-83
2023/02/16 23:17:59;;;;;;;7.23;4.27;;;;;;;10.76;45.09;96467.63;5047936;28;20207;-83
2023/02/16 23:20:25;;;;;;;5.70;4.63;;;;;;;10.77;45.57;96467.47;5043364;28;20718;-83
2023/02/16 23:22:52;;;;;;;5.73;4.77;;;;;;;10.77;45.62;96466.69;5038575;28;20202;-84
2023/02/16 23:25:36;;;;;;;6.17;4.60;;;;;;;10.71;45.14;96470.66;5040064;28;20222;-83
2023/02/16 23:28:05;;;;;;;7.37;4.63;;;;;;;10.69;45.36;96468.25;5050315;28;20204;-84
2023/02/16 23:30:31;;;;;;;6.30;5.03;;;;;;;10.73;45.70;96469.56;5030326;28;20262;-83
2023/02/16 23:32:58;;;;;;;6.53;4.90;;;;;;;10.70;45.65;96471.63;5032441;28;20346;-83
2023/02/16 23:35:24;;;;;;;6.33;4.80;;;;;;;10.71;45.82;96465.50;5051324;28;20244;-84
2023/02/16 23:37:51;;;;;;;7.30;4.77;;;;;;;10.72;45.63;96464.56;5038262;28;20685;-83
2023/02/16 23:40:17;;;;;;;8.40;4.90;;;;;;;10.77;45.55;96461.53;5045101;28;21826;-83
2023/02/16 23:42:47;;;;;;;7.87;4.83;;;;;;;10.77;45.47;96462.31;5049622;28;20213;-83
2023/02/16 23:45:15;;;;;;;4.67;4.10;;;;;;;10.78;45.17;96463.91;5050742;28;20267;-83
2023/02/16 23:47:41;;;;;;;6.07;4.80;;;;;;;10.83;45.56;96461.69;5051788;28;20201;-83
2023/02/16 23:50:08;;;;;;;5.70;5.10;;;;;;;10.80;45.11;96461.19;5037309;28;20226;-83
2023/02/16 23:52:35;;;;;;;6.87;4.70;;;;;;;10.79;45.09;96460.38;5037037;28;20225;-83
2023/02/16 23:55:01;;;;;;;6.00;5.00;;;;;;;10.81;45.50;96457.66;5047688;28;20291;-82
2023/02/16 23:57:27;;;;;;;6.57;4.97;;;;;;;10.83;45.38;96460.88;5059005;28;20202;-82
2023/02/16 23:59:54;;;;;;;6.03;4.60;;;;;;;10.82;45.47;96451.53;5045352;28;20233;-83
